Time;durP1;ratioP1;P1;durP2;ratioP2;P2;SDS_P1;SDS_P2;PMS_P1;PMS_P2;Temp;Humidity;BMP_temperature;BMP_pressure;BME280_temperature;BME280_humidity;BME280_pressure;Samples;Min_cycle;Max_cycle;Signal;HPM_P1;HPM_P2
2022/09/22 00:02:36;;;;;;;1.55;1.40;;;;;;;;;;10362703;28;20405;-82
2022/09/22 00:07:39;;;;;;;2.33;1.40;;;;;;;;;;10366069;28;20493;-82
2022/09/22 00:12:42;;;;;;;3.67;1.60;;;;;;;;;;10365606;28;20510;-82
2022/09/22 00:17:44;;;;;;;2.72;1.85;;;;;;;;;;10365415;28;20767;-82
2022/09/22 00:22:51;;;;;;;2.42;1.60;;;;;;;;;;10365378;28;20474;-82
2022/09/22 00:27:53;;;;;;;2.30;1.80;;;;;;;;;;10365130;28;20407;-82
2022/09/22 00:32:55;;;;;;;2.85;1.60;;;;;;;;;;10365087;28;20783;-82
2022/09/22 00:37:58;;;;;;;2.65;1.60;;;;;;;;;;10365192;28;20405;-82
2022/09/22 00:43:17;;;;;;;2.42;1.50;;;;;;;;;;10364374;28;20490;-81
2022/09/22 00:48:22;;;;;;;2.35;1.42;;;;;;;;;;10365411;28;20559;-82
2022/09/22 00:53:26;;;;;;;2.55;1.25;;;;;;;;;;10364483;28;20618;-82
2022/09/22 00:58:32;;;;;;;2.58;1.20;;;;;;;;;;10364006;28;20759;-82
2022/09/22 01:03:35;;;;;;;1.58;1.00;;;;;;;;;;10363846;28;20407;-81
2022/09/22 01:08:42;;;;;;;1.20;0.90;;;;;;;;;;10363638;28;20493;-82
2022/09/22 01:13:51;;;;;;;1.23;0.80;;;;;;;;;;10362814;28;20516;-82
2022/09/22 01:19:14;;;;;;;1.63;1.15;;;;;;;;;;10363766;28;20486;-82
2022/09/22 01:24:48;;;;;;;1.00;0.90;;;;;;;;;;10363251;28;20407;-82
2022/09/22 01:30:10;;;;;;;1.33;1.00;;;;;;;;;;10342394;28;20416;-81
2022/09/22 01:35:19;;;;;;;0.97;0.90;;;;;;;;;;10321813;28;20492;-82
2022/09/22 01:40:27;;;;;;;1.40;1.00;;;;;;;;;;10321011;28;20491;-82
2022/09/22 01:45:31;;;;;;;1.08;0.88;;;;;;;;;;10321326;28;20405;-81
2022/09/22 01:50:37;;;;;;;0.80;0.80;;;;;;;;;;10321557;28;20508;-82
2022/09/22 01:55:41;;;;;;;1.42;1.10;;;;;;;;;;10321056;28;20512;-81
2022/09/22 02:00:50;;;;;;;1.35;1.10;;;;;;;;;;10321271;28;20479;-81
2022/09/22 02:05:55;;;;;;;1.20;1.10;;;;;;;;;;10320984;28;20487;-82
2022/09/22 02:11:02;;;;;;;1.75;1.13;;;;;;;;;;10320561;28;20499;-82
2022/09/22 02:16:06;;;;;;;2.30;1.37;;;;;;;;;;10320355;28;20889;-81
2022/09/22 02:21:09;;;;;;;2.40;1.20;;;;;;;;;;10319922;28;20489;-81
2022/09/22 02:26:13;;;;;;;1.90;1.20;;;;;;;;;;10319412;28;20405;-81
2022/09/22 02:31:16;;;;;;;2.10;1.13;;;;;;;;;;10319716;28;20439;-81
2022/09/22 02:36:29;;;;;;;2.57;1.10;;;;;;;;;;10319486;28;20781;-81
2022/09/22 02:41:40;;;;;;;1.95;1.25;;;;;;;;;;10319662;28;20974;-81
2022/09/22 02:46:48;;;;;;;2.60;1.40;;;;;;;;;;10319428;28;20500;-81
2022/09/22 02:51:52;;;;;;;1.37;1.20;;;;;;;;;;10319089;28;20409;-82
2022/09/22 02:56:54;;;;;;;1.77;1.15;;;;;;;;;;10318721;28;20430;-81
2022/09/22 03:01:57;;;;;;;1.93;1.33;;;;;;;;;;10318994;28;20411;-82
2022/09/22 03:06:59;;;;;;;1.10;1.00;;;;;;;;;;10319010;28;20405;-82
2022/09/22 03:12:02;;;;;;;1.80;1.43;;;;;;;;;;10318381;28;20924;-81
2022/09/22 03:17:05;;;;;;;1.47;1.20;;;;;;;;;;10318229;28;20401;-81
2022/09/22 03:22:07;;;;;;;2.80;1.15;;;;;;;;;;10318368;28;20491;-82
2022/09/22 03:27:08;;;;;;;1.20;1.10;;;;;;;;;;10318549;28;20401;-81
2022/09/22 03:32:12;;;;;;;1.92;1.10;;;;;;;;;;10318154;28;20561;-81
2022/09/22 03:37:13;;;;;;;1.20;1.10;;;;;;;;;;10317434;28;20853;-81
2022/09/22 03:42:15;;;;;;;2.70;1.20;;;;;;;;;;10317761;28;20431;-80
2022/09/22 03:47:19;;;;;;;1.27;0.90;;;;;;;;;;10317339;28;20404;-82
2022/09/22 03:52:21;;;;;;;2.43;1.00;;;;;;;;;;10317462;28;20465;-81
2022/09/22 03:57:23;;;;;;;1.17;1.07;;;;;;;;;;10317438;28;20825;-81
2022/09/22 04:02:26;;;;;;;1.02;0.90;;;;;;;;;;10317659;28;20496;-81
2022/09/22 04:07:28;;;;;;;1.40;0.90;;;;;;;;;;10317385;28;20401;-81
2022/09/22 04:12:29;;;;;;;1.20;0.98;;;;;;;;;;10317121;28;20432;-81
2022/09/22 04:17:33;;;;;;;2.22;0.90;;;;;;;;;;10317503;28;20407;-81
2022/09/22 04:22:35;;;;;;;1.58;1.00;;;;;;;;;;10317516;28;20488;-81
2022/09/22 04:27:36;;;;;;;0.88;0.88;;;;;;;;;;10316977;28;20504;-82
2022/09/22 04:32:40;;;;;;;1.50;1.23;;;;;;;;;;10317025;28;20460;-81
2022/09/22 04:37:42;;;;;;;0.90;0.90;;;;;;;;;;10316920;28;20411;-82
2022/09/22 04:42:45;;;;;;;2.95;1.75;;;;;;;;;;10317327;28;20479;-82
2022/09/22 04:47:50;;;;;;;2.30;1.27;;;;;;;;;;10319519;28;21364;-81
2022/09/22 04:52:54;;;;;;;2.63;1.20;;;;;;;;;;10324177;28;20417;-81
2022/09/22 04:57:57;;;;;;;2.13;1.30;;;;;;;;;;10322035;28;20516;-81
2022/09/22 05:03:00;;;;;;;2.17;1.30;;;;;;;;;;10319488;28;20409;-82
2022/09/22 05:08:02;;;;;;;1.55;1.10;;;;;;;;;;10323216;28;20789;-81
2022/09/22 05:13:05;;;;;;;2.03;1.25;;;;;;;;;;10325143;28;20423;-81
2022/09/22 05:18:09;;;;;;;2.15;1.20;;;;;;;;;;10323470;28;20905;-81
2022/09/22 05:23:10;;;;;;;1.27;1.00;;;;;;;;;;10322847;28;20968;-81
2022/09/22 05:28:12;;;;;;;1.88;1.08;;;;;;;;;;10322808;28;20407;-80
2022/09/22 05:33:15;;;;;;;3.17;1.27;;;;;;;;;;10321583;28;20443;-81
2022/09/22 05:38:18;;;;;;;3.88;2.08;;;;;;;;;;10321956;28;21081;-81
2022/09/22 05:43:19;;;;;;;1.73;1.30;;;;;;;;;;10319514;28;20488;-81
2022/09/22 05:48:23;;;;;;;1.52;1.38;;;;;;;;;;10319379;28;20411;-81
2022/09/22 05:53:24;;;;;;;2.58;1.45;;;;;;;;;;10318824;28;20434;-81
2022/09/22 05:58:26;;;;;;;2.30;1.30;;;;;;;;;;10320736;28;20404;-80
2022/09/22 06:03:29;;;;;;;1.70;1.30;;;;;;;;;;10318481;28;20412;-80
2022/09/22 06:08:31;;;;;;;3.57;1.20;;;;;;;;;;10322035;28;20537;-81
2022/09/22 06:13:34;;;;;;;1.75;1.20;;;;;;;;;;10321839;28;20421;-80
2022/09/22 06:18:37;;;;;;;2.85;1.20;;;;;;;;;;10321646;28;20440;-81
2022/09/22 06:23:39;;;;;;;2.13;1.33;;;;;;;;;;10321285;28;20409;-81
2022/09/22 06:28:41;;;;;;;2.17;1.13;;;;;;;;;;10320875;28;20487;-81
2022/09/22 06:33:47;;;;;;;1.35;1.15;;;;;;;;;;10320925;28;20523;-81
2022/09/22 06:38:49;;;;;;;1.33;1.20;;;;;;;;;;10320999;28;20467;-81
2022/09/22 06:43:54;;;;;;;5.10;1.48;;;;;;;;;;10320514;28;20403;-81
2022/09/22 06:48:58;;;;;;;3.63;1.30;;;;;;;;;;10320548;28;20495;-79
2022/09/22 06:54:02;;;;;;;4.03;1.90;;;;;;;;;;10320157;28;20434;-79
2022/09/22 06:59:11;;;;;;;3.30;1.37;;;;;;;;;;10319797;28;20416;-79
2022/09/22 07:04:14;;;;;;;1.85;1.15;;;;;;;;;;10319926;28;20769;-80
2022/09/22 07:09:16;;;;;;;1.90;1.25;;;;;;;;;;10319301;28;20487;-80
2022/09/22 07:14:21;;;;;;;1.77;1.13;;;;;;;;;;10319702;28;20435;-81
2022/09/22 07:19:24;;;;;;;2.42;1.00;;;;;;;;;;10319459;28;20404;-80
2022/09/22 07:24:26;;;;;;;1.20;1.00;;;;;;;;;;10319240;28;20789;-80
2022/09/22 07:29:28;;;;;;;2.67;1.10;;;;;;;;;;10316664;28;20410;-81
2022/09/22 07:34:32;;;;;;;2.92;1.20;;;;;;;;;;10318219;28;20464;-81
2022/09/22 07:39:34;;;;;;;3.22;1.30;;;;;;;;;;10313994;28;20499;-81
2022/09/22 07:49:56;;;;;;;1.30;0.90;;;;;;;;;;10309749;28;20393;-81
2022/09/22 07:54:58;;;;;;;2.58;1.00;;;;;;;;;;10314631;28;20477;-81
2022/09/22 08:00:00;;;;;;;1.73;1.03;;;;;;;;;;10315011;28;20408;-80
2022/09/22 08:05:07;;;;;;;2.05;1.30;;;;;;;;;;10308278;28;20960;-80
2022/09/22 08:10:11;;;;;;;2.60;1.27;;;;;;;;;;10314293;28;20401;-81
2022/09/22 08:15:12;;;;;;;4.77;1.60;;;;;;;;;;10317883;28;20812;-80
2022/09/22 08:20:16;;;;;;;2.45;1.50;;;;;;;;;;10307784;28;20433;-81
2022/09/22 08:25:17;;;;;;;1.80;1.40;;;;;;;;;;10322365;28;20405;-80
2022/09/22 08:30:19;;;;;;;2.05;1.15;;;;;;;;;;10312814;28;20968;-81
2022/09/22 08:35:22;;;;;;;1.58;1.00;;;;;;;;;;10317664;28;21018;-81
2022/09/22 08:40:24;;;;;;;2.08;1.30;;;;;;;;;;10318473;28;20443;-81
2022/09/22 08:45:30;;;;;;;3.10;1.10;;;;;;;;;;10289959;28;20497;-81
2022/09/22 08:56:14;;;;;;;2.30;1.00;;;;;;;;;;10313655;28;20418;-81
2022/09/22 09:01:30;;;;;;;1.65;0.82;;;;;;;;;;10320711;28;20920;-79
2022/09/22 09:06:45;;;;;;;0.93;0.73;;;;;;;;;;10320127;28;20874;-81
2022/09/22 09:12:05;;;;;;;1.03;0.83;;;;;;;;;;10317505;28;20427;-81
2022/09/22 09:17:16;;;;;;;1.38;0.90;;;;;;;;;;10309936;28;20510;-81
2022/09/22 09:22:26;;;;;;;1.33;0.80;;;;;;;;;;10293968;28;20933;-80
2022/09/22 09:27:35;;;;;;;2.65;0.60;;;;;;;;;;10309978;28;20412;-81
2022/09/22 09:32:48;;;;;;;1.60;0.77;;;;;;;;;;10320915;28;20416;-80
2022/09/22 09:37:57;;;;;;;1.25;0.60;;;;;;;;;;10309155;28;20424;-79
2022/09/22 09:43:06;;;;;;;2.20;0.65;;;;;;;;;;10289249;28;20426;-79
2022/09/22 09:48:24;;;;;;;0.80;0.60;;;;;;;;;;10308289;28;20410;-80
2022/09/22 09:53:38;;;;;;;3.42;0.60;;;;;;;;;;10293876;28;20399;-79
2022/09/22 10:04:29;;;;;;;1.50;0.70;;;;;;;;;;10306999;28;20864;-79
2022/09/22 10:09:38;;;;;;;1.60;0.70;;;;;;;;;;10306700;28;20421;-80
2022/09/22 10:14:52;;;;;;;1.38;0.70;;;;;;;;;;10289976;28;20903;-81
2022/09/22 10:20:23;;;;;;;1.10;0.80;;;;;;;;;;10284876;28;20414;-81
2022/09/22 10:25:31;;;;;;;1.45;0.60;;;;;;;;;;10279566;28;20466;-79
2022/09/22 10:30:39;;;;;;;1.23;0.60;;;;;;;;;;10287353;28;20888;-80
2022/09/22 10:35:47;;;;;;;1.20;0.80;;;;;;;;;;10290013;28;20426;-79
2022/09/22 10:40:59;;;;;;;0.80;0.70;;;;;;;;;;10293751;28;20491;-80
2022/09/22 10:46:28;;;;;;;1.73;1.10;;;;;;;;;;10318094;28;20757;-79
2022/09/22 10:51:44;;;;;;;3.78;1.10;;;;;;;;;;10317172;28;21063;-80
2022/09/22 10:56:52;;;;;;;1.27;0.90;;;;;;;;;;10316184;28;20425;-81
2022/09/22 11:02:07;;;;;;;1.02;0.73;;;;;;;;;;10306164;28;20400;-81
2022/09/22 11:12:57;;;;;;;1.30;1.20;;;;;;;;;;10316783;28;20397;-82
2022/09/22 11:18:19;;;;;;;1.80;1.00;;;;;;;;;;10304835;28;20426;-82
2022/09/22 11:23:36;;;;;;;1.15;0.88;;;;;;;;;;10293083;28;20713;-82
2022/09/22 11:28:59;;;;;;;1.60;0.90;;;;;;;;;;10307441;28;20408;-82
2022/09/22 11:34:28;;;;;;;1.60;0.80;;;;;;;;;;10309122;28;20908;-82
2022/09/22 11:39:47;;;;;;;2.40;0.70;;;;;;;;;;10311895;28;20436;-80
2022/09/22 11:45:00;;;;;;;1.70;0.70;;;;;;;;;;10313703;28;20435;-81
2022/09/22 11:50:25;;;;;;;1.38;0.77;;;;;;;;;;10321732;28;20443;-81
2022/09/22 11:55:36;;;;;;;1.00;0.70;;;;;;;;;;10288875;28;20439;-82
2022/09/22 12:00:45;;;;;;;1.33;0.93;;;;;;;;;;10288561;28;20418;-80
2022/09/22 12:05:51;;;;;;;1.50;0.90;;;;;;;;;;10286663;28;20412;-81
2022/09/22 12:10:54;;;;;;;0.93;0.75;;;;;;;;;;10297332;28;20414;-81
2022/09/22 12:16:05;;;;;;;2.80;1.00;;;;;;;;;;10298707;28;20932;-80
2022/09/22 12:21:22;;;;;;;1.37;0.70;;;;;;;;;;10293849;28;20401;-80
2022/09/22 12:26:30;;;;;;;1.07;0.77;;;;;;;;;;10297914;28;20424;-81
2022/09/22 12:31:35;;;;;;;0.98;0.80;;;;;;;;;;10291440;28;20408;-80
2022/09/22 12:36:39;;;;;;;1.95;0.88;;;;;;;;;;10289935;28;20433;-81
2022/09/22 12:41:47;;;;;;;0.73;0.60;;;;;;;;;;10289283;28;20408;-79
2022/09/22 12:46:51;;;;;;;0.80;0.70;;;;;;;;;;10293687;28;20407;-80
2022/09/22 12:51:53;;;;;;;1.00;0.90;;;;;;;;;;10292273;28;20448;-81
2022/09/22 12:56:58;;;;;;;1.08;0.80;;;;;;;;;;10291780;28;20453;-81
2022/09/22 13:02:28;;;;;;;0.65;0.60;;;;;;;;;;10288129;28;20431;-81
2022/09/22 13:07:35;;;;;;;1.25;0.65;;;;;;;;;;10285532;28;20816;-82
2022/09/22 13:12:37;;;;;;;0.70;0.60;;;;;;;;;;10293719;28;20489;-80
2022/09/22 13:17:42;;;;;;;2.55;0.70;;;;;;;;;;10286716;28;20434;-81
2022/09/22 13:22:44;;;;;;;2.83;0.80;;;;;;;;;;10298675;28;20415;-82
2022/09/22 13:27:46;;;;;;;1.20;0.68;;;;;;;;;;10315985;28;20487;-80
2022/09/22 13:32:51;;;;;;;0.60;0.55;;;;;;;;;;10303430;28;20401;-81
2022/09/22 13:37:55;;;;;;;3.00;0.70;;;;;;;;;;10288868;28;20502;-82
2022/09/22 13:43:00;;;;;;;1.10;0.60;;;;;;;;;;10295946;28;20414;-80
2022/09/22 13:48:08;;;;;;;0.77;0.70;;;;;;;;;;10305149;28;20410;-81
2022/09/22 13:53:16;;;;;;;1.37;0.70;;;;;;;;;;10290201;28;20417;-79
2022/09/22 13:58:23;;;;;;;1.30;0.70;;;;;;;;;;10286704;28;20509;-81
2022/09/22 14:03:28;;;;;;;1.27;0.80;;;;;;;;;;10285439;28;20485;-82
2022/09/22 14:08:34;;;;;;;1.05;0.65;;;;;;;;;;10284088;28;20399;-82
2022/09/22 14:13:41;;;;;;;3.92;1.35;;;;;;;;;;10300278;28;20428;-81
2022/09/22 14:18:47;;;;;;;2.90;0.80;;;;;;;;;;10298588;28;20932;-81
2022/09/22 14:23:51;;;;;;;2.03;0.80;;;;;;;;;;10305598;28;20434;-82
2022/09/22 14:28:55;;;;;;;0.60;0.60;;;;;;;;;;10300994;28;20405;-83
2022/09/22 14:33:59;;;;;;;1.85;0.75;;;;;;;;;;10290337;28;20410;-83
2022/09/22 14:39:01;;;;;;;1.40;1.10;;;;;;;;;;10289356;28;20430;-82
2022/09/22 14:44:25;;;;;;;1.10;0.60;;;;;;;;;;10301492;28;20699;-82
2022/09/22 14:49:39;;;;;;;1.10;0.80;;;;;;;;;;10311887;28;20433;-83
2022/09/22 14:54:42;;;;;;;1.77;0.50;;;;;;;;;;10293849;28;20711;-82
2022/09/22 15:05:10;;;;;;;1.90;0.70;;;;;;;;;;10297972;28;20387;-83
2022/09/22 15:10:21;;;;;;;1.00;0.80;;;;;;;;;;10299263;28;20492;-83
2022/09/22 15:15:26;;;;;;;1.42;0.70;;;;;;;;;;10303730;28;20521;-83
2022/09/22 15:20:35;;;;;;;1.23;0.50;;;;;;;;;;10298888;28;20417;-83
2022/09/22 15:25:37;;;;;;;2.58;0.80;;;;;;;;;;10324487;28;20403;-83
2022/09/22 15:30:39;;;;;;;1.58;0.65;;;;;;;;;;10305099;28;20431;-83
2022/09/22 15:35:44;;;;;;;2.47;1.00;;;;;;;;;;10300530;28;20813;-83
2022/09/22 15:40:47;;;;;;;1.50;0.70;;;;;;;;;;10302609;28;20954;-83
2022/09/22 15:45:52;;;;;;;2.85;0.77;;;;;;;;;;10292578;28;20482;-83
2022/09/22 15:50:57;;;;;;;2.08;1.00;;;;;;;;;;10314323;28;20443;-82
2022/09/22 15:56:01;;;;;;;1.73;0.73;;;;;;;;;;10295865;28;20430;-83
2022/09/22 16:01:04;;;;;;;1.80;0.90;;;;;;;;;;10281317;28;20455;-82
2022/09/22 16:06:10;;;;;;;0.97;0.70;;;;;;;;;;10293244;28;20434;-82
2022/09/22 16:11:14;;;;;;;0.85;0.60;;;;;;;;;;10275311;28;20920;-80
2022/09/22 16:16:16;;;;;;;0.98;0.70;;;;;;;;;;10276849;28;20434;-79
2022/09/22 16:21:23;;;;;;;1.33;0.68;;;;;;;;;;10285037;28;20465;-82
2022/09/22 16:26:27;;;;;;;1.25;0.90;;;;;;;;;;10282413;28;20906;-82
2022/09/22 16:31:29;;;;;;;2.20;0.80;;;;;;;;;;10284335;28;20502;-81
2022/09/22 16:36:35;;;;;;;2.20;0.80;;;;;;;;;;10292673;28;20430;-81
2022/09/22 16:41:43;;;;;;;4.22;0.98;;;;;;;;;;10282878;28;20416;-82
2022/09/22 16:46:45;;;;;;;2.23;0.90;;;;;;;;;;10300564;28;20560;-81
2022/09/22 16:51:51;;;;;;;1.52;0.90;;;;;;;;;;10297941;28;20411;-81
2022/09/22 16:56:53;;;;;;;1.40;0.80;;;;;;;;;;10288799;28;20471;-82
2022/09/22 17:01:55;;;;;;;4.35;1.02;;;;;;;;;;10281478;28;20410;-81
2022/09/22 17:06:58;;;;;;;1.58;0.80;;;;;;;;;;10284501;28;20413;-82
2022/09/22 17:12:02;;;;;;;1.77;0.90;;;;;;;;;;10289396;28;20402;-82
2022/09/22 17:17:06;;;;;;;1.13;0.80;;;;;;;;;;10284676;28;20446;-82
2022/09/22 17:22:09;;;;;;;2.10;1.00;;;;;;;;;;10303578;28;20830;-81
2022/09/22 17:27:11;;;;;;;1.25;0.73;;;;;;;;;;10306780;28;20405;-81
2022/09/22 17:32:13;;;;;;;1.42;0.70;;;;;;;;;;10299289;28;20509;-80
2022/09/22 17:37:19;;;;;;;1.17;1.00;;;;;;;;;;10288221;28;20449;-81
2022/09/22 17:42:20;;;;;;;3.55;1.15;;;;;;;;;;10284296;28;20469;-81
2022/09/22 17:58:02;;;;;;;1.63;1.25;;;;;;;;;;10285282;28;20426;-82
2022/09/22 18:03:04;;;;;;;2.30;1.05;;;;;;;;;;10281623;28;20477;-82
2022/09/22 18:08:07;;;;;;;1.90;1.00;;;;;;;;;;10294831;28;20419;-81
2022/09/22 18:13:09;;;;;;;2.78;2.35;;;;;;;;;;10310110;28;20487;-81
2022/09/22 18:18:10;;;;;;;4.55;2.97;;;;;;;;;;10287127;28;20940;-80
2022/09/22 18:23:14;;;;;;;4.10;2.80;;;;;;;;;;10290492;28;20477;-81
2022/09/22 18:28:22;;;;;;;3.20;2.10;;;;;;;;;;10282687;28;20901;-82
2022/09/22 18:33:24;;;;;;;2.67;1.65;;;;;;;;;;10284725;28;20412;-82
2022/09/22 18:38:28;;;;;;;2.63;1.27;;;;;;;;;;10278012;28;20617;-81
2022/09/22 18:43:30;;;;;;;2.90;1.40;;;;;;;;;;10283918;28;20410;-81
2022/09/22 18:48:32;;;;;;;3.78;1.70;;;;;;;;;;10283341;28;20418;-80
2022/09/22 18:53:35;;;;;;;4.37;2.07;;;;;;;;;;10283898;28;20491;-81
2022/09/22 18:58:37;;;;;;;3.33;1.75;;;;;;;;;;10286105;28;20441;-83
2022/09/22 19:03:40;;;;;;;2.30;1.70;;;;;;;;;;10287004;28;20478;-82
2022/09/22 19:08:43;;;;;;;3.60;2.78;;;;;;;;;;10283300;28;20435;-83
2022/09/22 19:13:45;;;;;;;3.42;2.20;;;;;;;;;;10279670;28;20418;-82
2022/09/22 19:18:48;;;;;;;4.30;2.60;;;;;;;;;;10293799;28;20423;-82
2022/09/22 19:23:51;;;;;;;3.08;2.40;;;;;;;;;;10304161;28;20443;-83
2022/09/22 19:28:53;;;;;;;3.72;2.60;;;;;;;;;;10285271;28;20419;-84
2022/09/22 19:33:55;;;;;;;3.90;3.03;;;;;;;;;;10285986;28;20493;-82
2022/09/22 19:38:58;;;;;;;3.78;3.15;;;;;;;;;;10293871;28;20428;-83
2022/09/22 19:44:00;;;;;;;5.35;3.35;;;;;;;;;;10309523;28;20854;-81
2022/09/22 19:49:04;;;;;;;4.03;3.50;;;;;;;;;;10299309;28;20757;-83
2022/09/22 19:54:07;;;;;;;6.57;3.90;;;;;;;;;;10292881;28;20468;-83
2022/09/22 19:59:09;;;;;;;4.20;3.80;;;;;;;;;;10289267;28;21209;-83
2022/09/22 20:04:14;;;;;;;4.70;4.20;;;;;;;;;;10290879;28;21271;-83
2022/09/22 20:09:18;;;;;;;9.02;3.88;;;;;;;;;;10292865;28;20943;-82
2022/09/22 20:14:20;;;;;;;6.25;4.00;;;;;;;;;;10294189;28;20600;-82
2022/09/22 20:19:25;;;;;;;4.43;3.83;;;;;;;;;;10298072;28;20426;-83
2022/09/22 20:24:28;;;;;;;7.15;5.40;;;;;;;;;;10307360;28;20754;-83
2022/09/22 20:29:31;;;;;;;9.88;7.18;;;;;;;;;;10293620;28;20420;-84
2022/09/22 20:34:33;;;;;;;11.70;8.30;;;;;;;;;;10294014;28;20490;-83
2022/09/22 20:39:36;;;;;;;14.38;7.50;;;;;;;;;;10281734;28;20458;-83
2022/09/22 20:44:39;;;;;;;9.23;6.60;;;;;;;;;;10287991;28;20518;-83
2022/09/22 20:49:41;;;;;;;8.15;6.13;;;;;;;;;;10286532;28;20485;-83
2022/09/22 20:54:45;;;;;;;6.55;5.50;;;;;;;;;;10286252;28;20413;-83
2022/09/22 20:59:47;;;;;;;6.93;5.53;;;;;;;;;;10287207;28;20436;-83
2022/09/22 21:04:49;;;;;;;7.70;5.07;;;;;;;;;;10281195;28;20596;-83
2022/09/22 21:15:13;;;;;;;7.70;4.80;;;;;;;;;;10285846;28;20446;-82
2022/09/22 21:20:14;;;;;;;7.32;4.57;;;;;;;;;;10302575;28;20429;-83
2022/09/22 21:25:19;;;;;;;8.60;4.82;;;;;;;;;;10315718;28;20980;-83
2022/09/22 21:30:20;;;;;;;5.75;4.30;;;;;;;;;;10304360;28;20495;-82
2022/09/22 21:35:22;;;;;;;5.57;4.50;;;;;;;;;;10293888;28;20766;-83
2022/09/22 21:40:25;;;;;;;4.80;4.03;;;;;;;;;;10302970;28;20425;-82
2022/09/22 21:45:27;;;;;;;6.63;4.40;;;;;;;;;;10317361;28;20488;-83
2022/09/22 21:50:31;;;;;;;7.55;4.63;;;;;;;;;;10318914;28;20850;-83
2022/09/22 21:55:35;;;;;;;5.73;4.33;;;;;;;;;;10316695;28;20952;-83
2022/09/22 22:00:36;;;;;;;6.20;4.30;;;;;;;;;;10317902;28;20432;-83
2022/09/22 22:05:38;;;;;;;4.95;4.43;;;;;;;;;;10310354;28;20415;-82
2022/09/22 22:10:42;;;;;;;5.33;4.30;;;;;;;;;;10294697;28;20824;-83
2022/09/22 22:15:45;;;;;;;6.33;4.27;;;;;;;;;;10289973;28;20425;-83
2022/09/22 22:20:47;;;;;;;5.07;4.20;;;;;;;;;;10286874;28;20411;-83
2022/09/22 22:25:57;;;;;;;5.00;4.22;;;;;;;;;;10286071;28;20405;-83
2022/09/22 22:31:03;;;;;;;6.57;4.93;;;;;;;;;;10294662;28;20951;-82
2022/09/22 22:36:07;;;;;;;5.50;4.25;;;;;;;;;;10292554;28;20497;-83
2022/09/22 22:41:11;;;;;;;5.47;4.20;;;;;;;;;;10316223;28;20425;-83
2022/09/22 22:46:15;;;;;;;4.93;4.43;;;;;;;;;;10316656;28;20903;-83
2022/09/22 22:51:19;;;;;;;5.53;4.30;;;;;;;;;;10311139;28;20911;-83
2022/09/22 22:56:23;;;;;;;6.95;4.25;;;;;;;;;;10285628;28;20428;-83
2022/09/22 23:01:27;;;;;;;5.63;4.85;;;;;;;;;;10327590;28;20409;-83
2022/09/22 23:06:32;;;;;;;6.03;4.90;;;;;;;;;;10293649;28;20494;-82
2022/09/22 23:11:38;;;;;;;5.40;4.90;;;;;;;;;;10302672;28;20411;-83
2022/09/22 23:16:43;;;;;;;5.50;4.60;;;;;;;;;;10277810;28;20899;-81
2022/09/22 23:21:45;;;;;;;6.90;5.20;;;;;;;;;;10307405;28;20400;-83
2022/09/22 23:26:48;;;;;;;6.00;5.10;;;;;;;;;;10316785;28;20908;-82
2022/09/22 23:31:50;;;;;;;5.53;5.03;;;;;;;;;;10290387;28;20446;-83
2022/09/22 23:36:52;;;;;;;5.37;4.87;;;;;;;;;;10276852;28;20426;-83
2022/09/22 23:41:55;;;;;;;5.20;4.70;;;;;;;;;;10277136;28;20414;-82
2022/09/22 23:46:58;;;;;;;5.35;4.85;;;;;;;;;;10277637;28;21221;-82
2022/09/22 23:51:59;;;;;;;5.07;4.60;;;;;;;;;;10280503;28;20429;-82
2022/09/22 23:57:03;;;;;;;6.38;4.70;;;;;;;;;;10290328;28;20509;-83
